Time;durP1;ratioP1;P1;durP2;ratioP2;P2;SDS_P1;SDS_P2;PMS_P1;PMS_P2;Temp;Humidity;BMP_temperature;BMP_pressure;BME280_temperature;BME280_humidity;BME280_pressure;Samples;Min_cycle;Max_cycle;Signal;HPM_P1;HPM_P2
2022/04/14 00:01:59;;;;;;;37.78;28.65;;;;;;;14.05;100.00;101925.03;4887957;29;20515;-45
2022/04/14 00:04:26;;;;;;;34.65;27.00;;;;;;;14.04;100.00;101909.66;4900180;29;20100;-45
2022/04/14 00:06:54;;;;;;;35.50;27.00;;;;;;;14.02;100.00;101909.13;4898942;29;20041;-47
2022/04/14 00:09:22;;;;;;;35.83;28.48;;;;;;;13.99;100.00;101909.63;4898454;29;20048;-46
2022/04/14 00:11:49;;;;;;;33.15;26.98;;;;;;;13.96;100.00;101906.59;4899329;29;20109;-45
2022/04/14 00:14:17;;;;;;;33.85;28.27;;;;;;;13.93;100.00;101905.22;4899044;29;20051;-46
2022/04/14 00:16:45;;;;;;;32.72;27.35;;;;;;;13.92;100.00;101909.03;4899327;29;20396;-45
2022/04/14 00:19:12;;;;;;;34.03;27.45;;;;;;;13.90;100.00;101908.47;4907880;29;20512;-47
2022/04/14 00:21:40;;;;;;;32.25;26.85;;;;;;;13.89;100.00;101893.13;4899169;29;20041;-46
2022/04/14 00:24:08;;;;;;;32.05;27.30;;;;;;;13.88;100.00;101905.19;4898916;29;20052;-45
2022/04/14 00:26:35;;;;;;;30.65;26.33;;;;;;;13.86;100.00;101890.94;4898884;29;20053;-45
2022/04/14 00:29:03;;;;;;;29.42;25.17;;;;;;;13.84;100.00;101884.88;4898617;29;20049;-47
2022/04/14 00:31:30;;;;;;;30.98;25.95;;;;;;;13.84;100.00;101893.09;4899030;29;20053;-50
2022/04/14 00:33:58;;;;;;;27.48;23.90;;;;;;;13.84;100.00;101890.38;4898852;29;20040;-48
2022/04/14 00:36:26;;;;;;;29.70;22.80;;;;;;;13.85;100.00;101892.00;4898364;29;20385;-49
2022/04/14 00:38:53;;;;;;;30.67;23.85;;;;;;;13.84;100.00;101884.88;4900442;29;20064;-48
2022/04/14 00:41:21;;;;;;;31.63;25.40;;;;;;;13.83;100.00;101886.81;4901132;29;20052;-45
2022/04/14 00:43:53;;;;;;;32.15;25.77;;;;;;;13.82;100.00;101887.06;4898832;29;20040;-49
2022/04/14 00:46:21;;;;;;;29.50;23.67;;;;;;;13.83;100.00;101888.72;4928290;29;20071;-50
2022/04/14 00:48:49;;;;;;;29.75;23.83;;;;;;;13.82;100.00;101893.34;4927056;29;20047;-48
2022/04/14 00:51:17;;;;;;;33.08;25.58;;;;;;;13.83;100.00;101891.47;4929059;29;20131;-50
2022/04/14 00:53:45;;;;;;;28.80;24.60;;;;;;;13.81;100.00;101888.97;4898390;29;20048;-47
2022/04/14 00:56:12;;;;;;;29.92;24.83;;;;;;;13.80;100.00;101886.50;4897116;29;20400;-48
2022/04/14 00:58:41;;;;;;;30.67;25.95;;;;;;;13.78;100.00;101891.41;4899406;29;20048;-48
2022/04/14 01:01:08;;;;;;;30.33;25.77;;;;;;;13.76;100.00;101883.47;4900879;29;20044;-48
2022/04/14 01:03:45;;;;;;;31.05;25.85;;;;;;;13.75;100.00;101886.47;4916454;29;20139;-49
2022/04/14 01:06:15;;;;;;;29.88;24.67;;;;;;;13.73;100.00;101889.44;4911973;29;20056;-48
2022/04/14 01:09:16;;;;;;;29.27;24.10;;;;;;;13.72;100.00;101896.03;4899592;29;20033;-50
2022/04/14 01:11:31;;;;;;;32.15;25.08;;;;;;;13.71;100.00;101893.53;4910442;29;20040;-49
2022/04/14 01:13:59;;;;;;;29.63;23.38;;;;;;;13.71;100.00;101886.19;4929462;29;20453;-50
2022/04/14 01:16:26;;;;;;;28.88;23.08;;;;;;;13.70;100.00;101894.66;4910030;29;20059;-48
2022/04/14 01:18:54;;;;;;;28.35;23.70;;;;;;;13.68;100.00;101892.16;4890250;29;20475;-50
2022/04/14 01:21:22;;;;;;;28.75;23.83;;;;;;;13.67;100.00;101886.97;4898086;29;20499;-46
2022/04/14 01:23:50;;;;;;;30.15;24.17;;;;;;;13.64;100.00;101886.41;4901770;29;20397;-49
2022/04/14 01:26:18;;;;;;;27.23;21.15;;;;;;;13.64;100.00;101880.91;4885171;29;20515;-49
2022/04/14 01:28:45;;;;;;;25.58;21.13;;;;;;;13.64;100.00;101891.06;4897623;29;20048;-48
2022/04/14 01:31:13;;;;;;;27.42;22.73;;;;;;;13.63;100.00;101884.72;4898324;29;20053;-51
2022/04/14 01:33:41;;;;;;;26.63;21.35;;;;;;;13.62;100.00;101890.47;4903261;29;20044;-52
2022/04/14 01:36:08;;;;;;;25.35;21.33;;;;;;;13.59;100.00;101886.34;4906277;29;20067;-49
2022/04/14 01:38:38;;;;;;;24.80;20.45;;;;;;;13.60;100.00;101884.44;4897634;29;20056;-50
2022/04/14 01:41:06;;;;;;;24.80;19.60;;;;;;;13.61;100.00;101889.66;4897589;29;20045;-50
2022/04/14 01:43:33;;;;;;;24.35;19.60;;;;;;;13.61;100.00;101891.56;4897787;29;20052;-51
2022/04/14 01:46:03;;;;;;;25.52;20.55;;;;;;;13.60;100.00;101884.44;4897543;29;20044;-48
2022/04/14 01:48:31;;;;;;;25.10;20.05;;;;;;;13.58;100.00;101884.69;4897945;29;20127;-49
2022/04/14 01:50:58;;;;;;;24.40;19.90;;;;;;;13.58;100.00;101892.09;4897563;29;20052;-49
2022/04/14 01:53:26;;;;;;;24.98;19.85;;;;;;;13.56;100.00;101884.13;4913701;29;20403;-51
2022/04/14 01:55:53;;;;;;;25.38;21.27;;;;;;;13.54;100.00;101886.31;4916611;29;20404;-47
2022/04/14 01:58:21;;;;;;;25.90;19.90;;;;;;;13.55;100.00;101887.16;4913481;29;20527;-49
2022/04/14 02:00:49;;;;;;;24.75;19.75;;;;;;;13.55;100.00;101887.16;4899851;29;20064;-53
2022/04/14 02:03:17;;;;;;;26.95;20.45;;;;;;;13.55;100.00;101887.16;4920957;29;20068;-52
2022/04/14 02:05:44;;;;;;;24.67;19.77;;;;;;;13.54;100.00;101897.28;4920468;29;20048;-49
2022/04/14 02:08:12;;;;;;;23.90;19.33;;;;;;;13.53;100.00;101889.31;4898809;29;20393;-49
2022/04/14 02:10:39;;;;;;;23.52;19.25;;;;;;;13.52;100.00;101893.97;4919916;29;20063;-47
2022/04/14 02:13:07;;;;;;;25.70;20.90;;;;;;;13.52;100.00;101899.44;4898966;29;20052;-49
2022/04/14 02:15:35;;;;;;;25.85;20.00;;;;;;;13.50;100.00;101901.63;4900416;29;20110;-48
2022/04/14 02:18:02;;;;;;;24.88;20.00;;;;;;;13.50;100.00;101906.28;4901363;29;20053;-53
2022/04/14 02:20:30;;;;;;;25.10;20.40;;;;;;;13.49;100.00;101905.41;4901299;29;20048;-52
2022/04/14 02:22:57;;;;;;;24.30;20.45;;;;;;;13.49;100.00;101897.22;4900987;29;20062;-52
2022/04/14 02:25:26;;;;;;;23.77;20.58;;;;;;;13.47;100.00;101907.63;4900939;29;20067;-51
2022/04/14 02:27:53;;;;;;;26.60;21.17;;;;;;;13.46;100.00;101905.94;4901922;29;20508;-50
2022/04/14 02:30:21;;;;;;;24.38;20.25;;;;;;;13.45;100.00;101903.50;4901116;29;20123;-53
2022/04/14 02:32:49;;;;;;;28.10;21.33;;;;;;;13.43;100.00;101901.00;4930702;29;20055;-50
2022/04/14 02:35:16;;;;;;;26.35;21.38;;;;;;;13.41;100.00;101903.19;4901077;29;20045;-48
2022/04/14 02:37:44;;;;;;;26.60;21.52;;;;;;;13.40;100.00;101905.09;4900824;29;20142;-50
2022/04/14 02:40:13;;;;;;;26.67;20.00;;;;;;;13.39;100.00;101906.16;4910948;29;20111;-50
2022/04/14 02:42:41;;;;;;;26.65;21.27;;;;;;;13.39;100.00;101910.81;4919775;29;20058;-49
2022/04/14 02:45:09;;;;;;;28.08;21.45;;;;;;;13.37;100.00;101910.25;4919753;29;20048;-51
2022/04/14 02:47:37;;;;;;;29.30;22.02;;;;;;;13.36;100.00;101911.34;4916800;29;20045;-52
2022/04/14 02:50:05;;;;;;;26.58;22.42;;;;;;;13.35;100.00;101906.97;4904673;29;20052;-50
2022/04/14 02:52:33;;;;;;;26.83;22.48;;;;;;;13.33;100.00;101904.47;4900710;29;20088;-49
2022/04/14 02:55:01;;;;;;;33.03;22.15;;;;;;;13.32;100.00;101911.03;4900661;29;20389;-49
2022/04/14 02:57:30;;;;;;;26.17;21.42;;;;;;;13.31;100.00;101908.56;4900385;29;20037;-49
2022/04/14 02:59:58;;;;;;;28.63;22.75;;;;;;;13.29;100.00;101908.81;4905368;29;20077;-51
2022/04/14 03:02:25;;;;;;;27.67;21.75;;;;;;;13.26;100.00;101909.31;4901534;29;20048;-49
2022/04/14 03:04:53;;;;;;;30.60;22.30;;;;;;;13.24;100.00;101908.75;4900374;29;20128;-48
2022/04/14 03:07:21;;;;;;;28.75;23.10;;;;;;;13.23;100.00;101907.09;4900363;29;20045;-49
2022/04/14 03:09:48;;;;;;;27.20;22.00;;;;;;;13.21;100.00;101907.34;4904519;29;20041;-49
2022/04/14 03:12:16;;;;;;;27.58;22.25;;;;;;;13.19;100.00;101906.78;4899838;29;20055;-51
2022/04/14 03:14:46;;;;;;;28.52;22.80;;;;;;;13.18;100.00;101905.13;4918309;29;20143;-48
2022/04/14 03:17:13;;;;;;;28.50;21.63;;;;;;;13.18;100.00;101905.13;4881607;29;20460;-50
2022/04/14 03:19:41;;;;;;;26.15;20.98;;;;;;;13.18;100.00;101898.81;4889339;29;20048;-52
2022/04/14 03:22:09;;;;;;;29.88;22.30;;;;;;;13.17;100.00;101908.94;4928666;29;20423;-48
2022/04/14 03:24:37;;;;;;;28.98;23.13;;;;;;;13.16;100.00;101901.81;4899132;29;20135;-50
2022/04/14 03:27:05;;;;;;;29.45;22.92;;;;;;;13.15;100.00;101907.56;4905046;29;20044;-51
2022/04/14 03:29:34;;;;;;;28.30;22.58;;;;;;;13.14;100.00;101917.69;4893100;29;20044;-50
2022/04/14 03:32:02;;;;;;;27.98;21.65;;;;;;;13.14;100.00;101904.00;4929635;29;20457;-48
2022/04/14 03:34:30;;;;;;;31.50;23.15;;;;;;;13.13;100.00;101910.56;4900044;29;20048;-47
2022/04/14 03:37:05;;;;;;;32.33;22.92;;;;;;;13.12;100.00;101908.91;4901001;29;20044;-45
2022/04/14 03:39:33;;;;;;;28.45;21.80;;;;;;;13.12;100.00;101911.63;4899426;29;20053;-44
2022/04/14 03:42:00;;;;;;;28.23;22.23;;;;;;;13.13;100.00;101909.72;4899842;29;20049;-44
2022/04/14 03:44:28;;;;;;;26.40;21.23;;;;;;;13.11;100.00;101907.25;4899569;29;20044;-46
2022/04/14 03:46:56;;;;;;;30.77;23.90;;;;;;;13.09;100.00;101914.88;4898337;29;20052;-46
2022/04/14 03:49:23;;;;;;;28.33;22.15;;;;;;;13.06;100.00;101912.69;4901090;29;20274;-47
2022/04/14 03:51:54;;;;;;;29.60;22.30;;;;;;;13.05;100.00;101916.47;4899485;29;20083;-49
2022/04/14 03:54:22;;;;;;;26.70;20.83;;;;;;;13.02;100.00;101905.25;4899763;29;20059;-49
2022/04/14 03:56:49;;;;;;;26.63;19.50;;;;;;;13.01;100.00;101909.88;4899452;29;20040;-49
2022/04/14 03:59:17;;;;;;;29.63;20.77;;;;;;;12.99;100.00;101909.31;4899220;29;20049;-49
2022/04/14 04:01:45;;;;;;;24.02;18.77;;;;;;;12.98;100.00;101915.84;4898776;29;20052;-47
2022/04/14 04:04:12;;;;;;;24.65;19.17;;;;;;;12.96;100.00;101913.41;4897612;29;20051;-48
2022/04/14 04:06:40;;;;;;;24.17;19.15;;;;;;;12.95;100.00;101913.66;4898326;29;20052;-48
2022/04/14 04:09:08;;;;;;;24.95;20.25;;;;;;;12.92;100.00;101911.44;4925647;29;20048;-50
2022/04/14 04:11:36;;;;;;;24.88;19.40;;;;;;;12.91;100.00;101907.84;4907100;29;20059;-48
2022/04/14 04:14:03;;;;;;;25.02;21.00;;;;;;;12.91;100.00;101907.03;4898120;29;20104;-51
2022/04/14 04:16:31;;;;;;;22.80;19.83;;;;;;;12.88;100.00;101923.97;4897738;29;20040;-50
2022/04/14 04:18:59;;;;;;;23.23;19.60;;;;;;;12.86;100.00;101923.38;4898065;29;20048;-47
2022/04/14 04:21:29;;;;;;;23.58;19.75;;;;;;;12.84;100.00;101920.06;4896597;29;20052;-48
2022/04/14 04:23:56;;;;;;;22.17;18.50;;;;;;;12.80;100.00;101922.50;4898876;29;20045;-50
2022/04/14 04:26:24;;;;;;;23.08;18.00;;;;;;;12.77;100.00;101932.06;4898978;29;20068;-49
2022/04/14 04:28:52;;;;;;;18.67;15.65;;;;;;;12.80;100.00;101930.72;4898035;29;20522;-49
2022/04/14 04:31:19;;;;;;;19.73;17.02;;;;;;;12.81;100.00;101928.81;4898848;29;20056;-49
2022/04/14 04:33:51;;;;;;;21.90;17.73;;;;;;;12.80;100.00;101930.72;4898576;29;20124;-51
2022/04/14 04:36:19;;;;;;;19.23;16.55;;;;;;;12.78;100.00;101933.69;4898003;29;20056;-46
2022/04/14 04:38:47;;;;;;;18.25;15.25;;;;;;;12.79;100.00;101934.50;4899057;29;20101;-53
2022/04/14 04:41:14;;;;;;;20.73;16.27;;;;;;;12.77;100.00;101932.06;4898996;29;20056;-49
2022/04/14 04:43:42;;;;;;;18.67;15.80;;;;;;;12.75;100.00;101934.22;4898097;29;20048;-49
2022/04/14 04:46:10;;;;;;;19.77;15.88;;;;;;;12.74;100.00;101931.72;4897358;29;20096;-48
2022/04/14 04:48:37;;;;;;;18.77;15.98;;;;;;;12.73;100.00;101933.63;4900762;29;20504;-48
2022/04/14 04:51:05;;;;;;;19.60;16.35;;;;;;;12.73;100.00;101935.56;4898005;29;20048;-48
2022/04/14 04:53:33;;;;;;;19.00;15.90;;;;;;;12.73;100.00;101941.03;4910541;29;20044;-48
2022/04/14 04:56:00;;;;;;;20.45;15.60;;;;;;;12.70;100.00;101941.50;4899902;29;20395;-48
2022/04/14 04:58:28;;;;;;;18.85;15.90;;;;;;;12.66;100.00;101941.22;4899899;29;20044;-50
2022/04/14 05:00:56;;;;;;;22.73;16.13;;;;;;;12.61;100.00;101943.88;4917166;29;20048;-47
2022/04/14 05:03:26;;;;;;;21.10;15.73;;;;;;;12.60;100.00;101953.16;4898299;29;20104;-48
2022/04/14 05:05:56;;;;;;;16.90;14.35;;;;;;;12.58;100.00;101949.88;4898415;29;20051;-48
2022/04/14 05:08:24;;;;;;;18.60;15.45;;;;;;;12.58;100.00;101955.34;4897330;29;20085;-50
2022/04/14 05:10:55;;;;;;;15.82;13.65;;;;;;;12.57;100.00;101953.66;4914110;29;20579;-48
2022/04/14 05:13:22;;;;;;;18.58;15.73;;;;;;;12.57;100.00;101954.47;4899550;29;20048;-49
2022/04/14 05:15:50;;;;;;;17.85;14.90;;;;;;;12.55;100.00;101951.19;4898101;29;20056;-50
2022/04/14 05:18:18;;;;;;;18.70;16.52;;;;;;;12.53;100.00;101957.97;4897854;29;20096;-51
2022/04/14 05:20:46;;;;;;;17.05;14.57;;;;;;;12.53;100.00;101960.72;4909593;29;20044;-50
2022/04/14 05:23:13;;;;;;;16.40;14.38;;;;;;;12.53;99.97;101963.44;4913870;29;20052;-52
2022/04/14 05:25:41;;;;;;;18.52;15.35;;;;;;;12.50;100.00;101963.97;4897901;29;20049;-50
2022/04/14 05:28:11;;;;;;;14.75;13.02;;;;;;;12.49;99.68;101956.84;4897888;29;20516;-48
2022/04/14 05:30:39;;;;;;;14.93;12.38;;;;;;;12.49;100.00;101959.59;4899095;29;20049;-49
2022/04/14 05:33:10;;;;;;;16.25;13.05;;;;;;;12.46;100.00;101962.81;4897305;29;20048;-49
2022/04/14 05:35:39;;;;;;;16.75;13.05;;;;;;;12.44;99.94;101971.28;4898246;29;20512;-51
2022/04/14 05:38:06;;;;;;;15.07;12.65;;;;;;;12.43;100.00;101974.25;4901418;29;20146;-52
2022/04/14 05:40:35;;;;;;;17.75;14.27;;;;;;;12.42;99.99;101969.88;4222919;29;10000811;-52
2022/04/14 05:43:02;;;;;;;17.83;14.18;;;;;;;12.41;99.92;101966.31;4899476;29;20080;-49
2022/04/14 05:45:32;;;;;;;16.60;13.27;;;;;;;12.40;99.69;101972.84;4898443;29;20048;-54
2022/04/14 05:48:00;;;;;;;16.73;14.88;;;;;;;12.41;100.00;101987.34;4899184;29;20041;-54
2022/04/14 05:50:27;;;;;;;16.58;13.88;;;;;;;12.42;99.76;101987.09;4899004;29;20052;-53
2022/04/14 05:52:56;;;;;;;17.50;13.88;;;;;;;12.43;99.56;101986.00;4898843;29;20055;-54
2022/04/14 05:55:24;;;;;;;20.25;17.08;;;;;;;12.36;99.36;101985.34;4899532;29;20048;-53
2022/04/14 05:57:51;;;;;;;19.60;17.13;;;;;;;12.27;99.34;101995.91;4898528;29;20040;-53
2022/04/14 06:00:19;;;;;;;21.75;17.30;;;;;;;12.20;99.75;102000.72;4902968;29;20050;-52
2022/04/14 06:02:47;;;;;;;19.98;17.13;;;;;;;12.15;99.75;101996.00;4904589;29;20044;-52
2022/04/14 06:05:14;;;;;;;19.08;16.33;;;;;;;12.18;100.00;102002.88;4903441;29;20040;-54
2022/04/14 06:07:42;;;;;;;18.42;15.43;;;;;;;12.21;99.13;101999.63;4904225;29;20052;-52
2022/04/14 06:10:15;;;;;;;17.83;14.77;;;;;;;12.22;99.08;101995.84;4900985;29;20487;-49
2022/04/14 06:12:44;;;;;;;18.15;15.20;;;;;;;12.25;99.16;101987.13;4896957;29;20151;-51
2022/04/14 06:15:13;;;;;;;18.30;15.43;;;;;;;12.31;99.39;101986.13;4901211;29;20056;-49
2022/04/14 06:17:42;;;;;;;18.67;15.77;;;;;;;12.35;98.87;101994.66;4903341;29;20071;-49
2022/04/14 06:20:11;;;;;;;19.42;16.80;;;;;;;12.33;98.93;102003.09;4905162;29;20067;-54
2022/04/14 06:22:43;;;;;;;21.17;16.98;;;;;;;12.29;98.62;101996.47;4927812;29;20103;-51
2022/04/14 06:25:16;;;;;;;18.85;15.07;;;;;;;12.31;99.10;101994.34;4901237;29;20554;-51
2022/04/14 06:27:45;;;;;;;20.15;17.30;;;;;;;12.33;98.50;101994.06;4916607;29;20049;-50
2022/04/14 06:30:17;;;;;;;20.98;17.17;;;;;;;12.32;98.55;101998.72;4887065;29;20048;-52
2022/04/14 06:32:59;;;;;;;21.10;16.70;;;;;;;12.30;98.80;101998.13;4904305;29;20056;-48
2022/04/14 06:35:28;;;;;;;18.35;15.48;;;;;;;12.28;98.88;102004.91;4911622;29;20044;-50
2022/04/14 06:37:56;;;;;;;20.50;15.68;;;;;;;12.27;99.06;102003.28;4905118;29;20452;-52
2022/04/14 06:40:24;;;;;;;18.88;15.27;;;;;;;12.28;98.70;101997.53;4902863;29;20119;-51
2022/04/14 06:43:01;;;;;;;19.52;15.23;;;;;;;12.31;98.36;102007.16;4902119;29;20559;-47
2022/04/14 06:45:31;;;;;;;19.17;15.02;;;;;;;12.31;97.89;102002.53;4900716;29;20460;-49
2022/04/14 06:47:59;;;;;;;20.08;16.10;;;;;;;12.31;98.34;102002.53;4885960;29;20056;-51
2022/04/14 06:50:27;;;;;;;21.40;16.63;;;;;;;12.33;98.06;102002.25;4918000;29;20045;-47
2022/04/14 06:52:55;;;;;;;20.20;16.83;;;;;;;12.32;98.91;101998.72;4909102;29;20055;-47
2022/04/14 06:55:22;;;;;;;18.15;15.95;;;;;;;12.34;98.03;102007.50;4900211;29;20048;-48
2022/04/14 06:57:50;;;;;;;20.23;16.02;;;;;;;12.36;98.00;102001.75;4899194;29;20044;-53
2022/04/14 07:00:19;;;;;;;21.23;16.40;;;;;;;12.35;98.69;102000.94;4910181;29;20040;-48
2022/04/14 07:02:47;;;;;;;21.48;17.10;;;;;;;12.38;99.08;101998.78;4899841;29;20492;-49
2022/04/14 07:05:15;;;;;;;20.60;16.35;;;;;;;12.40;99.75;102004.81;4900586;29;20062;-51
2022/04/14 07:07:43;;;;;;;19.88;15.75;;;;;;;12.40;99.11;102002.09;4900080;29;20119;-50
2022/04/14 07:10:12;;;;;;;19.52;15.95;;;;;;;12.44;100.00;102008.72;4900092;29;20050;-49
2022/04/14 07:12:41;;;;;;;26.58;21.00;;;;;;;12.49;100.00;102004.16;4882208;29;20053;-52
2022/04/14 07:15:09;;;;;;;22.50;17.45;;;;;;;12.57;99.94;102008.34;4898799;29;20050;-49
2022/04/14 07:17:37;;;;;;;20.77;15.85;;;;;;;12.62;99.96;102011.16;4899766;29;20040;-48
2022/04/14 07:20:10;;;;;;;19.52;15.10;;;;;;;12.64;99.67;102009.00;4900082;29;20052;-50
2022/04/14 07:22:58;;;;;;;24.33;15.57;;;;;;;12.66;99.63;102009.56;4903821;29;20044;-48
2022/04/14 07:25:28;;;;;;;18.45;13.43;;;;;;;12.69;100.00;102014.53;4900814;29;20108;-48
2022/04/14 07:27:56;;;;;;;18.35;13.75;;;;;;;12.74;99.74;102013.78;4912446;29;20054;-49
2022/04/14 07:30:23;;;;;;;15.75;12.68;;;;;;;12.76;100.00;102012.44;4903992;29;20068;-50
2022/04/14 07:32:52;;;;;;;18.65;11.98;;;;;;;12.78;99.88;102015.75;4906720;29;20112;-48
2022/04/14 07:35:22;;;;;;;15.23;11.57;;;;;;;12.82;99.70;102017.97;4901563;29;20063;-51
2022/04/14 07:37:50;;;;;;;18.00;12.88;;;;;;;12.85;99.10;102017.47;4898547;29;20060;-49
2022/04/14 07:40:18;;;;;;;17.70;11.70;;;;;;;12.84;97.64;102022.09;4900319;29;20051;-51
2022/04/14 07:42:47;;;;;;;14.70;11.60;;;;;;;12.86;97.52;102019.13;4905528;29;20518;-49
2022/04/14 07:45:15;;;;;;;16.77;11.30;;;;;;;12.88;96.88;102022.44;4911657;29;20053;-51
2022/04/14 07:47:44;;;;;;;16.75;11.75;;;;;;;12.90;96.74;102023.00;4911761;29;20124;-46
2022/04/14 07:50:16;;;;;;;17.52;11.88;;;;;;;12.92;97.04;102020.84;4911098;29;20049;-51
2022/04/14 07:52:47;;;;;;;17.73;12.32;;;;;;;12.96;96.49;102027.44;4909757;29;20041;-50
2022/04/14 07:55:23;;;;;;;16.77;12.73;;;;;;;12.96;96.42;102022.84;4899617;29;20416;-54
2022/04/14 07:57:52;;;;;;;17.42;12.50;;;;;;;12.99;96.06;102027.78;4928843;29;20040;-49
2022/04/14 08:00:20;;;;;;;15.02;10.90;;;;;;;13.02;96.08;102042.88;4899117;29;20044;-48
2022/04/14 08:02:56;;;;;;;18.23;11.90;;;;;;;13.03;95.75;102030.81;4923488;29;20047;-53
2022/04/14 08:05:39;;;;;;;16.83;11.40;;;;;;;13.06;95.53;102038.53;4891975;29;20442;-53
2022/04/14 08:08:08;;;;;;;16.55;10.85;;;;;;;13.09;95.32;102038.03;4899043;29;20041;-51
2022/04/14 08:10:36;;;;;;;18.90;9.98;;;;;;;13.13;94.35;102041.91;4899277;29;20048;-52
2022/04/14 08:13:04;;;;;;;14.40;9.88;;;;;;;13.15;93.67;102037.00;4897915;29;20059;-50
2022/04/14 08:15:33;;;;;;;14.60;9.75;;;;;;;13.18;94.12;102036.50;4898992;29;20071;-52
2022/04/14 08:18:02;;;;;;;19.15;11.38;;;;;;;13.21;93.75;102035.97;4899093;29;20055;-52
2022/04/14 08:20:30;;;;;;;14.93;10.20;;;;;;;13.26;92.57;102029.75;4900290;29;20053;-51
2022/04/14 08:22:59;;;;;;;18.58;11.07;;;;;;;13.27;92.12;102033.28;4902561;29;20079;-50
2022/04/14 08:25:33;;;;;;;16.90;10.18;;;;;;;13.32;92.35;102034.19;4911707;29;20036;-53
2022/04/14 08:28:03;;;;;;;14.45;9.70;;;;;;;13.37;92.79;102028.81;4898976;29;20055;-48
2022/04/14 08:30:32;;;;;;;15.48;9.77;;;;;;;13.40;92.43;102035.69;4903585;29;20068;-51
2022/04/14 08:33:05;;;;;;;13.93;8.05;;;;;;;13.45;91.05;102032.16;4898864;29;20054;-52
2022/04/14 08:35:33;;;;;;;17.52;9.18;;;;;;;13.48;90.81;102028.91;4898669;29;20041;-52
2022/04/14 08:38:07;;;;;;;13.77;9.45;;;;;;;13.47;89.16;102033.56;4896877;29;20057;-49
2022/04/14 08:40:40;;;;;;;14.23;9.25;;;;;;;13.51;89.21;102034.69;4897499;29;20095;-50
2022/04/14 08:43:37;;;;;;;13.93;9.02;;;;;;;13.52;89.20;102041.00;4898582;29;20045;-48
2022/04/14 08:46:06;;;;;;;14.23;8.63;;;;;;;13.55;89.15;102035.00;4897627;29;20040;-48
2022/04/14 08:48:36;;;;;;;13.25;7.93;;;;;;;13.58;88.33;102035.31;4897907;29;20530;-53
2022/04/14 08:51:05;;;;;;;13.30;7.20;;;;;;;13.63;86.63;102031.78;4898475;29;20047;-50
2022/04/14 08:53:35;;;;;;;13.00;6.82;;;;;;;13.67;86.25;102032.13;4899142;29;20045;-52
2022/04/14 08:56:05;;;;;;;11.40;7.00;;;;;;;13.71;85.23;102033.22;4896941;29;20045;-50
2022/04/14 08:58:34;;;;;;;10.50;6.78;;;;;;;13.73;84.97;102037.34;4898466;29;20040;-54
2022/04/14 09:01:02;;;;;;;12.00;7.00;;;;;;;13.78;85.11;102042.06;4896091;29;20037;-54
2022/04/14 09:03:54;;;;;;;15.38;7.53;;;;;;;13.82;85.14;102038.56;4898075;29;20049;-53
2022/04/14 09:06:23;;;;;;;15.25;8.25;;;;;;;13.86;83.85;102036.13;4898064;29;20119;-50
2022/04/14 09:08:51;;;;;;;11.70;6.82;;;;;;;13.90;82.91;102041.91;4896309;29;20045;-52
2022/04/14 09:11:19;;;;;;;14.25;7.07;;;;;;;13.92;83.13;102037.81;4903088;29;20052;-50
2022/04/14 09:13:46;;;;;;;10.68;6.65;;;;;;;13.97;83.26;102029.63;4898323;29;20099;-51
2022/04/14 09:16:14;;;;;;;15.20;7.90;;;;;;;14.03;83.41;102023.13;4898598;29;20049;-51
2022/04/14 09:18:42;;;;;;;15.30;8.18;;;;;;;14.05;83.28;102020.94;4897083;29;20083;-55
2022/04/14 09:21:10;;;;;;;13.77;7.75;;;;;;;14.07;83.11;102024.25;4893841;29;20044;-55
2022/04/14 09:23:37;;;;;;;14.50;8.75;;;;;;;14.13;83.76;102021.56;4898165;29;20048;-52
2022/04/14 09:26:06;;;;;;;16.27;8.88;;;;;;;14.21;83.96;102021.06;4914588;29;20056;-54
2022/04/14 09:28:34;;;;;;;14.60;8.48;;;;;;;14.21;82.97;102026.53;4911999;29;20536;-53
2022/04/14 09:31:07;;;;;;;13.38;7.65;;;;;;;14.22;83.21;102017.25;4904142;29;20067;-50
2022/04/14 09:33:44;;;;;;;13.32;8.57;;;;;;;14.23;83.42;102019.69;4916272;29;20052;-51
2022/04/14 09:36:16;;;;;;;12.98;9.10;;;;;;;14.28;82.91;102017.00;4917364;29;20103;-53
2022/04/14 09:38:56;;;;;;;14.00;8.30;;;;;;;14.34;82.60;102011.56;4912533;29;20056;-52
2022/04/14 09:41:28;;;;;;;14.07;7.90;;;;;;;14.36;81.67;102012.94;4897752;29;20050;-49
2022/04/14 09:43:57;;;;;;;9.93;6.25;;;;;;;14.40;81.03;102008.56;4898171;29;20045;-51
2022/04/14 09:46:25;;;;;;;15.35;7.55;;;;;;;14.44;81.31;101998.72;4881493;29;20041;-52
2022/04/14 09:49:09;;;;;;;12.00;7.28;;;;;;;14.48;77.86;101999.03;4897772;29;20431;-50
2022/04/14 09:51:47;;;;;;;10.98;7.07;;;;;;;14.51;77.32;102006.72;4911357;29;20056;-51
2022/04/14 09:54:19;;;;;;;14.40;7.45;;;;;;;14.55;77.86;101990.59;4904950;29;20519;-55
2022/04/14 09:56:48;;;;;;;11.85;6.40;;;;;;;14.59;76.10;101991.72;4896669;29;20055;-51
2022/04/14 09:59:23;;;;;;;10.38;6.55;;;;;;;14.62;74.91;101989.28;4897665;29;20049;-50
2022/04/14 10:02:12;;;;;;;11.55;6.30;;;;;;;14.66;72.81;101989.56;4904193;29;20045;-53
2022/04/14 10:04:41;;;;;;;10.35;4.93;;;;;;;14.68;70.77;101984.63;4896281;29;20412;-50
2022/04/14 10:07:17;;;;;;;9.50;4.75;;;;;;;14.72;71.04;101988.50;4897818;29;20049;-50
2022/04/14 10:09:48;;;;;;;9.60;4.90;;;;;;;14.79;70.58;101993.72;4898464;29;20048;-51
2022/04/14 10:12:24;;;;;;;10.80;5.45;;;;;;;14.82;69.74;101994.03;4898007;29;20456;-50
2022/04/14 10:15:20;;;;;;;8.77;4.45;;;;;;;14.85;69.84;102001.72;4897774;29;20108;-51
2022/04/14 10:17:46;;;;;;;8.60;4.63;;;;;;;14.89;70.78;101994.59;4890769;29;20048;-49
2022/04/14 10:20:14;;;;;;;8.25;4.25;;;;;;;14.95;70.63;102000.09;4896258;29;20044;-51
2022/04/14 10:22:42;;;;;;;8.27;4.10;;;;;;;14.99;69.56;102002.06;4900359;29;20112;-53
2022/04/14 10:25:12;;;;;;;6.60;4.10;;;;;;;15.02;69.10;102020.72;4901277;29;20064;-50
2022/04/14 10:27:41;;;;;;;10.65;3.88;;;;;;;15.06;68.68;102015.53;4900453;29;20052;-49
2022/04/14 10:30:08;;;;;;;6.93;3.50;;;;;;;15.12;68.49;102017.19;4889220;29;20048;-50
2022/04/14 10:32:36;;;;;;;8.05;3.75;;;;;;;15.18;68.23;102013.38;4900882;29;20048;-50
2022/04/14 10:35:08;;;;;;;7.97;4.25;;;;;;;15.25;68.97;102010.34;4884496;29;20484;-49
2022/04/14 10:37:43;;;;;;;11.27;5.05;;;;;;;15.32;70.72;102014.50;4912166;29;20048;-50
2022/04/14 10:40:12;;;;;;;6.68;3.65;;;;;;;15.37;67.50;102032.06;4897918;29;20460;-49
2022/04/14 10:42:46;;;;;;;9.13;4.57;;;;;;;15.41;67.96;102024.97;4880140;29;20037;-49
2022/04/14 10:45:19;;;;;;;6.35;3.50;;;;;;;15.49;66.44;102027.16;4897745;29;20044;-49
2022/04/14 10:47:54;;;;;;;10.77;3.50;;;;;;;15.57;65.73;102021.16;4903740;29;20507;-49
2022/04/14 10:50:22;;;;;;;7.25;3.28;;;;;;;15.67;64.70;102014.84;4916048;29;20060;-52
2022/04/14 10:53:06;;;;;;;5.13;3.00;;;;;;;15.73;66.02;102014.63;4915365;29;20052;-52
2022/04/14 10:55:45;;;;;;;6.53;3.60;;;;;;;15.73;64.42;102019.28;4899462;29;20056;-53
2022/04/14 10:58:36;;;;;;;7.45;3.97;;;;;;;15.76;65.25;102021.47;4900658;29;20044;-53
2022/04/14 11:01:06;;;;;;;11.65;5.30;;;;;;;15.77;65.36;102015.69;4900117;29;20092;-52
2022/04/14 11:04:06;;;;;;;8.25;4.07;;;;;;;15.83;65.51;102018.47;4900425;29;20053;-51
2022/04/14 11:06:40;;;;;;;;;;;;;;;15.87;66.33;102000.31;4900337;29;20052;-50
2022/04/14 11:09:08;;;;;;;9.73;4.55;;;;;;;15.89;65.14;102018.19;4900906;29;19923;-50
2022/04/14 11:12:01;;;;;;;9.55;4.80;;;;;;;15.95;64.69;102013.53;4917657;29;20598;-52
2022/04/14 11:14:28;;;;;;;10.02;4.70;;;;;;;15.97;65.31;102003.91;4919004;29;20040;-50
2022/04/14 11:16:56;;;;;;;13.50;4.90;;;;;;;16.00;65.57;102005.28;4907666;29;20048;-49
2022/04/14 11:19:26;;;;;;;8.10;4.63;;;;;;;16.03;64.85;102003.91;4899346;29;20055;-48
2022/04/14 11:22:02;;;;;;;9.55;4.70;;;;;;;16.06;65.28;102011.59;4900060;29;20041;-52